Terminal Aerodrome Forecast
Issued by NWS

Home | Current Version | Previous Version | Text Only | Print | Product List | Glossary On
Versions: 1 2 3 4 5 6 7 8 9 10 11 12 13 14 15 16 17 18 19 20 21 22 23 24 25 26 27 28 29 30 31 32
000
FTUS41 KBUF 280331 AAB
TAFJHW
TAF AMD
KJHW 280331Z 2804/2824 VRB03KT 6SM BR FEW040
     FM280730 00000KT 2SM BR SCT003
      TEMPO 2809/2812 1SM BR BKN002
     FM281300 VRB03KT P6SM SCT200
     FM281700 25006KT P6SM FEW040 SCT250
      AMD LTD TO CLD VIS AND WIND=

USA.gov is the U.S. government's official web portal to all federal, state and local government web resources and services.